sensor_id;sensor_type;location;lat;lon;timestamp;P1;durP1;ratioP1;P2;durP2;ratioP2
49514;SDS011;35415;47.870;16.058;2023-03-01T00:01:09;17.17;;;10.00;;
49514;SDS011;35415;47.870;16.058;2023-03-01T00:03:38;18.58;;;9.45;;
49514;SDS011;35415;47.870;16.058;2023-03-01T00:06:06;16.77;;;9.18;;
49514;SDS011;35415;47.870;16.058;2023-03-01T00:08:33;18.33;;;10.20;;
49514;SDS011;35415;47.870;16.058;2023-03-01T00:11:03;16.27;;;9.32;;
49514;SDS011;35415;47.870;16.058;2023-03-01T00:13:32;18.02;;;9.07;;
49514;SDS011;35415;47.870;16.058;2023-03-01T00:16:04;18.55;;;9.13;;
49514;SDS011;35415;47.870;16.058;2023-03-01T00:18:33;15.93;;;9.13;;
49514;SDS011;35415;47.870;16.058;2023-03-01T00:21:00;17.48;;;9.35;;
49514;SDS011;35415;47.870;16.058;2023-03-01T00:23:28;14.88;;;9.32;;
49514;SDS011;35415;47.870;16.058;2023-03-01T00:25:56;18.00;;;9.63;;
49514;SDS011;35415;47.870;16.058;2023-03-01T00:28:23;19.33;;;9.20;;
49514;SDS011;35415;47.870;16.058;2023-03-01T00:30:51;16.52;;;9.18;;
49514;SDS011;35415;47.870;16.058;2023-03-01T00:33:20;18.65;;;9.40;;
49514;SDS011;35415;47.870;16.058;2023-03-01T00:35:47;18.65;;;9.95;;
49514;SDS011;35415;47.870;16.058;2023-03-01T00:38:15;19.00;;;9.23;;
49514;SDS011;35415;47.870;16.058;2023-03-01T00:40:44;15.10;;;9.05;;
49514;SDS011;35415;47.870;16.058;2023-03-01T00:43:12;15.65;;;9.05;;
49514;SDS011;35415;47.870;16.058;2023-03-01T00:45:39;21.90;;;10.10;;
49514;SDS011;35415;47.870;16.058;2023-03-01T00:48:08;18.63;;;9.48;;
49514;SDS011;35415;47.870;16.058;2023-03-01T00:50:37;14.65;;;8.55;;
49514;SDS011;35415;47.870;16.058;2023-03-01T00:53:04;16.13;;;9.23;;
49514;SDS011;35415;47.870;16.058;2023-03-01T00:55:32;18.92;;;9.13;;
49514;SDS011;35415;47.870;16.058;2023-03-01T00:57:59;19.27;;;9.00;;
49514;SDS011;35415;47.870;16.058;2023-03-01T01:00:26;18.20;;;9.73;;
49514;SDS011;35415;47.870;16.058;2023-03-01T01:02:54;22.92;;;10.10;;
49514;SDS011;35415;47.870;16.058;2023-03-01T01:05:21;18.88;;;10.13;;
49514;SDS011;35415;47.870;16.058;2023-03-01T01:07:50;18.80;;;9.75;;
49514;SDS011;35415;47.870;16.058;2023-03-01T01:10:17;18.00;;;9.52;;
49514;SDS011;35415;47.870;16.058;2023-03-01T01:12:47;20.25;;;9.57;;
49514;SDS011;35415;47.870;16.058;2023-03-01T01:15:14;19.27;;;10.35;;
49514;SDS011;35415;47.870;16.058;2023-03-01T01:17:42;19.15;;;9.48;;
49514;SDS011;35415;47.870;16.058;2023-03-01T01:20:10;18.60;;;10.23;;
49514;SDS011;35415;47.870;16.058;2023-03-01T01:22:38;18.02;;;9.77;;
49514;SDS011;35415;47.870;16.058;2023-03-01T01:25:08;18.20;;;9.65;;
49514;SDS011;35415;47.870;16.058;2023-03-01T01:27:35;18.55;;;9.65;;
49514;SDS011;35415;47.870;16.058;2023-03-01T01:30:03;22.92;;;10.65;;
49514;SDS011;35415;47.870;16.058;2023-03-01T01:32:31;20.42;;;9.98;;
49514;SDS011;35415;47.870;16.058;2023-03-01T01:34:58;19.13;;;10.15;;
49514;SDS011;35415;47.870;16.058;2023-03-01T01:37:26;18.75;;;9.75;;
49514;SDS011;35415;47.870;16.058;2023-03-01T01:39:56;23.48;;;9.77;;
49514;SDS011;35415;47.870;16.058;2023-03-01T01:42:26;26.33;;;10.38;;
49514;SDS011;35415;47.870;16.058;2023-03-01T01:47:51;20.60;;;9.82;;
49514;SDS011;35415;47.870;16.058;2023-03-01T01:50:21;18.30;;;10.20;;
49514;SDS011;35415;47.870;16.058;2023-03-01T01:52:49;22.05;;;9.85;;
49514;SDS011;35415;47.870;16.058;2023-03-01T01:55:20;15.90;;;8.77;;
49514;SDS011;35415;47.870;16.058;2023-03-01T01:57:56;18.52;;;9.35;;
49514;SDS011;35415;47.870;16.058;2023-03-01T02:00:27;20.45;;;9.43;;
49514;SDS011;35415;47.870;16.058;2023-03-01T02:02:57;18.60;;;9.63;;
49514;SDS011;35415;47.870;16.058;2023-03-01T02:05:28;14.32;;;9.18;;
49514;SDS011;35415;47.870;16.058;2023-03-01T02:08:04;19.30;;;9.88;;
49514;SDS011;35415;47.870;16.058;2023-03-01T02:10:33;17.73;;;8.82;;
49514;SDS011;35415;47.870;16.058;2023-03-01T02:13:03;21.05;;;9.95;;
49514;SDS011;35415;47.870;16.058;2023-03-01T02:15:31;19.38;;;9.30;;
49514;SDS011;35415;47.870;16.058;2023-03-01T02:18:00;19.55;;;9.63;;
49514;SDS011;35415;47.870;16.058;2023-03-01T02:20:33;15.60;;;9.32;;
49514;SDS011;35415;47.870;16.058;2023-03-01T02:23:04;16.20;;;9.27;;
49514;SDS011;35415;47.870;16.058;2023-03-01T02:25:34;19.65;;;9.63;;
49514;SDS011;35415;47.870;16.058;2023-03-01T02:30:51;20.83;;;9.50;;
49514;SDS011;35415;47.870;16.058;2023-03-01T02:33:38;15.20;;;8.43;;
49514;SDS011;35415;47.870;16.058;2023-03-01T02:36:08;16.65;;;9.18;;
49514;SDS011;35415;47.870;16.058;2023-03-01T02:38:39;15.57;;;9.13;;
49514;SDS011;35415;47.870;16.058;2023-03-01T02:41:07;18.35;;;9.57;;
49514;SDS011;35415;47.870;16.058;2023-03-01T02:43:37;16.20;;;8.77;;
49514;SDS011;35415;47.870;16.058;2023-03-01T02:46:05;21.73;;;9.25;;
49514;SDS011;35415;47.870;16.058;2023-03-01T02:48:42;17.13;;;8.82;;
49514;SDS011;35415;47.870;16.058;2023-03-01T02:51:14;17.73;;;8.98;;
49514;SDS011;35415;47.870;16.058;2023-03-01T02:53:54;17.23;;;9.43;;
49514;SDS011;35415;47.870;16.058;2023-03-01T02:56:32;16.08;;;9.23;;
49514;SDS011;35415;47.870;16.058;2023-03-01T02:59:00;19.30;;;9.05;;
49514;SDS011;35415;47.870;16.058;2023-03-01T03:01:28;22.10;;;9.57;;
49514;SDS011;35415;47.870;16.058;2023-03-01T03:04:02;19.38;;;9.27;;
49514;SDS011;35415;47.870;16.058;2023-03-01T03:06:35;14.80;;;8.60;;
49514;SDS011;35415;47.870;16.058;2023-03-01T03:09:02;13.52;;;8.13;;
49514;SDS011;35415;47.870;16.058;2023-03-01T03:11:30;17.10;;;8.70;;
49514;SDS011;35415;47.870;16.058;2023-03-01T03:13:58;15.07;;;9.25;;
49514;SDS011;35415;47.870;16.058;2023-03-01T03:16:28;15.15;;;8.80;;
49514;SDS011;35415;47.870;16.058;2023-03-01T03:18:58;16.48;;;9.13;;
49514;SDS011;35415;47.870;16.058;2023-03-01T03:21:30;14.68;;;8.77;;
49514;SDS011;35415;47.870;16.058;2023-03-01T03:23:58;18.00;;;9.52;;
49514;SDS011;35415;47.870;16.058;2023-03-01T03:26:25;16.08;;;9.00;;
49514;SDS011;35415;47.870;16.058;2023-03-01T03:28:53;15.80;;;9.10;;
49514;SDS011;35415;47.870;16.058;2023-03-01T03:31:22;14.40;;;8.63;;
49514;SDS011;35415;47.870;16.058;2023-03-01T03:33:51;15.50;;;8.70;;
49514;SDS011;35415;47.870;16.058;2023-03-01T03:36:20;19.42;;;9.52;;
49514;SDS011;35415;47.870;16.058;2023-03-01T03:38:48;16.08;;;9.15;;
49514;SDS011;35415;47.870;16.058;2023-03-01T03:41:15;18.67;;;9.18;;
49514;SDS011;35415;47.870;16.058;2023-03-01T03:43:44;17.77;;;9.48;;
49514;SDS011;35415;47.870;16.058;2023-03-01T03:46:11;15.80;;;9.15;;
49514;SDS011;35415;47.870;16.058;2023-03-01T03:48:40;16.63;;;9.07;;
49514;SDS011;35415;47.870;16.058;2023-03-01T03:51:11;16.75;;;9.68;;
49514;SDS011;35415;47.870;16.058;2023-03-01T03:53:40;16.58;;;9.07;;
49514;SDS011;35415;47.870;16.058;2023-03-01T03:56:08;20.63;;;9.15;;
49514;SDS011;35415;47.870;16.058;2023-03-01T03:58:35;14.98;;;9.18;;
49514;SDS011;35415;47.870;16.058;2023-03-01T04:01:03;16.15;;;9.25;;
49514;SDS011;35415;47.870;16.058;2023-03-01T04:03:31;17.77;;;10.00;;
49514;SDS011;35415;47.870;16.058;2023-03-01T04:06:00;14.65;;;9.15;;
49514;SDS011;35415;47.870;16.058;2023-03-01T04:08:30;16.40;;;8.70;;
49514;SDS011;35415;47.870;16.058;2023-03-01T04:10:59;15.02;;;9.18;;
49514;SDS011;35415;47.870;16.058;2023-03-01T04:13:48;15.27;;;8.80;;
49514;SDS011;35415;47.870;16.058;2023-03-01T04:16:17;18.70;;;8.98;;
49514;SDS011;35415;47.870;16.058;2023-03-01T04:18:46;21.38;;;10.65;;
49514;SDS011;35415;47.870;16.058;2023-03-01T04:21:13;20.63;;;9.43;;
49514;SDS011;35415;47.870;16.058;2023-03-01T04:23:42;16.52;;;9.32;;
49514;SDS011;35415;47.870;16.058;2023-03-01T04:26:10;19.10;;;9.80;;
49514;SDS011;35415;47.870;16.058;2023-03-01T04:28:37;20.60;;;9.35;;
49514;SDS011;35415;47.870;16.058;2023-03-01T04:31:11;22.17;;;9.55;;
49514;SDS011;35415;47.870;16.058;2023-03-01T04:33:43;17.00;;;9.57;;
49514;SDS011;35415;47.870;16.058;2023-03-01T04:36:13;17.80;;;10.00;;
49514;SDS011;35415;47.870;16.058;2023-03-01T04:38:44;15.70;;;9.75;;
49514;SDS011;35415;47.870;16.058;2023-03-01T04:41:15;21.17;;;10.57;;
49514;SDS011;35415;47.870;16.058;2023-03-01T04:43:44;21.52;;;11.05;;
49514;SDS011;35415;47.870;16.058;2023-03-01T04:46:12;18.42;;;10.10;;
49514;SDS011;35415;47.870;16.058;2023-03-01T04:48:40;18.35;;;9.38;;
49514;SDS011;35415;47.870;16.058;2023-03-01T04:51:09;19.25;;;10.40;;
49514;SDS011;35415;47.870;16.058;2023-03-01T04:53:38;15.57;;;9.45;;
49514;SDS011;35415;47.870;16.058;2023-03-01T04:56:08;19.45;;;10.07;;
49514;SDS011;35415;47.870;16.058;2023-03-01T04:58:35;17.40;;;9.90;;
49514;SDS011;35415;47.870;16.058;2023-03-01T05:01:08;18.95;;;9.40;;
49514;SDS011;35415;47.870;16.058;2023-03-01T05:03:40;17.73;;;10.18;;
49514;SDS011;35415;47.870;16.058;2023-03-01T05:06:09;17.17;;;10.18;;
49514;SDS011;35415;47.870;16.058;2023-03-01T05:08:36;17.23;;;9.40;;
49514;SDS011;35415;47.870;16.058;2023-03-01T05:11:04;19.38;;;10.32;;
49514;SDS011;35415;47.870;16.058;2023-03-01T05:13:35;37.67;;;17.35;;
49514;SDS011;35415;47.870;16.058;2023-03-01T05:16:04;54.45;;;23.95;;
49514;SDS011;35415;47.870;16.058;2023-03-01T05:18:36;26.15;;;12.88;;
49514;SDS011;35415;47.870;16.058;2023-03-01T05:21:04;34.30;;;14.75;;
49514;SDS011;35415;47.870;16.058;2023-03-01T05:23:33;81.40;;;26.92;;
49514;SDS011;35415;47.870;16.058;2023-03-01T05:26:02;106.70;;;35.75;;
49514;SDS011;35415;47.870;16.058;2023-03-01T05:28:31;91.57;;;32.03;;
49514;SDS011;35415;47.870;16.058;2023-03-01T05:31:00;60.75;;;24.08;;
49514;SDS011;35415;47.870;16.058;2023-03-01T05:33:28;43.33;;;18.35;;
49514;SDS011;35415;47.870;16.058;2023-03-01T05:35:59;31.52;;;15.15;;
49514;SDS011;35415;47.870;16.058;2023-03-01T05:38:26;29.98;;;14.90;;
49514;SDS011;35415;47.870;16.058;2023-03-01T05:40:53;26.25;;;14.23;;
49514;SDS011;35415;47.870;16.058;2023-03-01T05:43:21;30.90;;;16.15;;
49514;SDS011;35415;47.870;16.058;2023-03-01T05:45:49;27.40;;;14.60;;
49514;SDS011;35415;47.870;16.058;2023-03-01T05:48:17;28.95;;;14.82;;
49514;SDS011;35415;47.870;16.058;2023-03-01T05:50:46;26.02;;;13.73;;
49514;SDS011;35415;47.870;16.058;2023-03-01T05:53:16;21.38;;;11.45;;
49514;SDS011;35415;47.870;16.058;2023-03-01T05:55:46;22.55;;;11.77;;
49514;SDS011;35415;47.870;16.058;2023-03-01T05:58:15;28.70;;;14.00;;
49514;SDS011;35415;47.870;16.058;2023-03-01T06:00:46;32.45;;;15.32;;
49514;SDS011;35415;47.870;16.058;2023-03-01T06:03:15;30.95;;;13.82;;
49514;SDS011;35415;47.870;16.058;2023-03-01T06:05:47;31.40;;;13.65;;
49514;SDS011;35415;47.870;16.058;2023-03-01T06:08:14;22.67;;;13.27;;
49514;SDS011;35415;47.870;16.058;2023-03-01T06:10:45;25.75;;;14.63;;
49514;SDS011;35415;47.870;16.058;2023-03-01T06:13:15;26.38;;;13.25;;
49514;SDS011;35415;47.870;16.058;2023-03-01T06:15:44;21.77;;;11.75;;
49514;SDS011;35415;47.870;16.058;2023-03-01T06:18:12;23.90;;;11.32;;
49514;SDS011;35415;47.870;16.058;2023-03-01T06:20:39;23.88;;;11.90;;
49514;SDS011;35415;47.870;16.058;2023-03-01T06:23:10;21.90;;;11.10;;
49514;SDS011;35415;47.870;16.058;2023-03-01T06:25:37;25.77;;;12.45;;
49514;SDS011;35415;47.870;16.058;2023-03-01T06:28:04;23.20;;;11.02;;
49514;SDS011;35415;47.870;16.058;2023-03-01T06:30:31;25.58;;;12.52;;
49514;SDS011;35415;47.870;16.058;2023-03-01T06:32:58;25.88;;;12.55;;
49514;SDS011;35415;47.870;16.058;2023-03-01T06:35:28;21.80;;;11.80;;
49514;SDS011;35415;47.870;16.058;2023-03-01T06:37:56;27.65;;;12.70;;
49514;SDS011;35415;47.870;16.058;2023-03-01T06:40:26;22.08;;;12.43;;
49514;SDS011;35415;47.870;16.058;2023-03-01T06:42:54;31.45;;;11.48;;
49514;SDS011;35415;47.870;16.058;2023-03-01T06:45:21;24.30;;;11.07;;
49514;SDS011;35415;47.870;16.058;2023-03-01T06:47:48;26.85;;;11.18;;
49514;SDS011;35415;47.870;16.058;2023-03-01T06:50:16;27.02;;;13.27;;
49514;SDS011;35415;47.870;16.058;2023-03-01T06:52:44;24.55;;;12.20;;
49514;SDS011;35415;47.870;16.058;2023-03-01T06:55:11;26.48;;;12.27;;
49514;SDS011;35415;47.870;16.058;2023-03-01T06:57:40;27.40;;;12.60;;
49514;SDS011;35415;47.870;16.058;2023-03-01T07:00:08;24.70;;;12.23;;
49514;SDS011;35415;47.870;16.058;2023-03-01T07:02:36;23.27;;;11.75;;
49514;SDS011;35415;47.870;16.058;2023-03-01T07:05:03;29.67;;;13.45;;
49514;SDS011;35415;47.870;16.058;2023-03-01T07:07:30;27.50;;;12.90;;
49514;SDS011;35415;47.870;16.058;2023-03-01T07:09:57;25.25;;;12.30;;
49514;SDS011;35415;47.870;16.058;2023-03-01T07:12:24;28.50;;;12.98;;
49514;SDS011;35415;47.870;16.058;2023-03-01T07:14:52;30.80;;;14.60;;
49514;SDS011;35415;47.870;16.058;2023-03-01T07:17:19;24.33;;;11.35;;
49514;SDS011;35415;47.870;16.058;2023-03-01T07:19:46;26.15;;;12.73;;
49514;SDS011;35415;47.870;16.058;2023-03-01T07:22:14;23.25;;;13.15;;
49514;SDS011;35415;47.870;16.058;2023-03-01T07:24:41;23.13;;;12.27;;
49514;SDS011;35415;47.870;16.058;2023-03-01T07:27:08;25.33;;;12.23;;
49514;SDS011;35415;47.870;16.058;2023-03-01T07:29:35;29.00;;;13.73;;
49514;SDS011;35415;47.870;16.058;2023-03-01T07:32:04;28.63;;;13.77;;
49514;SDS011;35415;47.870;16.058;2023-03-01T07:34:32;25.08;;;12.90;;
49514;SDS011;35415;47.870;16.058;2023-03-01T07:36:59;26.15;;;13.45;;
49514;SDS011;35415;47.870;16.058;2023-03-01T07:39:26;26.15;;;14.63;;
49514;SDS011;35415;47.870;16.058;2023-03-01T07:41:53;28.50;;;13.30;;
49514;SDS011;35415;47.870;16.058;2023-03-01T07:44:20;29.65;;;14.68;;
49514;SDS011;35415;47.870;16.058;2023-03-01T07:46:47;27.48;;;13.07;;
49514;SDS011;35415;47.870;16.058;2023-03-01T07:49:15;29.33;;;14.75;;
49514;SDS011;35415;47.870;16.058;2023-03-01T07:51:43;28.73;;;13.43;;
49514;SDS011;35415;47.870;16.058;2023-03-01T07:54:10;29.70;;;14.55;;
49514;SDS011;35415;47.870;16.058;2023-03-01T07:56:37;26.85;;;13.68;;
49514;SDS011;35415;47.870;16.058;2023-03-01T07:59:05;26.15;;;13.63;;
49514;SDS011;35415;47.870;16.058;2023-03-01T08:01:32;26.10;;;13.18;;
49514;SDS011;35415;47.870;16.058;2023-03-01T08:03:59;28.42;;;13.98;;
49514;SDS011;35415;47.870;16.058;2023-03-01T08:06:28;26.65;;;13.70;;
49514;SDS011;35415;47.870;16.058;2023-03-01T08:08:55;28.85;;;14.70;;
49514;SDS011;35415;47.870;16.058;2023-03-01T08:11:23;30.30;;;15.18;;
49514;SDS011;35415;47.870;16.058;2023-03-01T08:13:50;32.45;;;15.32;;
49514;SDS011;35415;47.870;16.058;2023-03-01T08:16:17;36.45;;;16.80;;
49514;SDS011;35415;47.870;16.058;2023-03-01T08:18:44;38.67;;;16.38;;
49514;SDS011;35415;47.870;16.058;2023-03-01T08:21:12;37.28;;;16.13;;
49514;SDS011;35415;47.870;16.058;2023-03-01T08:23:43;28.15;;;14.85;;
49514;SDS011;35415;47.870;16.058;2023-03-01T08:26:11;32.60;;;15.20;;
49514;SDS011;35415;47.870;16.058;2023-03-01T08:28:40;32.60;;;16.00;;
49514;SDS011;35415;47.870;16.058;2023-03-01T08:31:13;29.15;;;15.07;;
49514;SDS011;35415;47.870;16.058;2023-03-01T08:33:41;30.00;;;15.77;;
49514;SDS011;35415;47.870;16.058;2023-03-01T08:36:08;35.30;;;15.55;;
49514;SDS011;35415;47.870;16.058;2023-03-01T08:38:35;32.05;;;16.77;;
49514;SDS011;35415;47.870;16.058;2023-03-01T08:41:04;26.30;;;14.88;;
49514;SDS011;35415;47.870;16.058;2023-03-01T08:43:31;26.48;;;15.23;;
49514;SDS011;35415;47.870;16.058;2023-03-01T08:45:58;34.40;;;17.08;;
49514;SDS011;35415;47.870;16.058;2023-03-01T08:48:25;31.15;;;16.27;;
49514;SDS011;35415;47.870;16.058;2023-03-01T08:50:54;30.50;;;15.73;;
49514;SDS011;35415;47.870;16.058;2023-03-01T08:53:21;30.90;;;14.27;;
49514;SDS011;35415;47.870;16.058;2023-03-01T08:55:48;35.13;;;17.00;;
49514;SDS011;35415;47.870;16.058;2023-03-01T08:58:16;36.85;;;16.73;;
49514;SDS011;35415;47.870;16.058;2023-03-01T09:00:45;27.45;;;13.88;;
49514;SDS011;35415;47.870;16.058;2023-03-01T09:03:12;26.52;;;13.98;;
49514;SDS011;35415;47.870;16.058;2023-03-01T09:05:39;29.70;;;14.95;;
49514;SDS011;35415;47.870;16.058;2023-03-01T09:08:09;39.92;;;16.02;;
49514;SDS011;35415;47.870;16.058;2023-03-01T09:10:37;49.38;;;21.30;;
49514;SDS011;35415;47.870;16.058;2023-03-01T09:13:04;26.88;;;13.98;;
49514;SDS011;35415;47.870;16.058;2023-03-01T09:15:33;28.80;;;14.82;;
49514;SDS011;35415;47.870;16.058;2023-03-01T09:18:00;20.63;;;11.07;;
49514;SDS011;35415;47.870;16.058;2023-03-01T09:20:27;22.80;;;10.45;;
49514;SDS011;35415;47.870;16.058;2023-03-01T09:22:54;19.27;;;11.15;;
49514;SDS011;35415;47.870;16.058;2023-03-01T09:25:21;18.77;;;10.38;;
49514;SDS011;35415;47.870;16.058;2023-03-01T09:27:50;24.40;;;11.32;;
49514;SDS011;35415;47.870;16.058;2023-03-01T09:30:17;18.65;;;8.70;;
49514;SDS011;35415;47.870;16.058;2023-03-01T09:32:46;16.60;;;7.32;;
49514;SDS011;35415;47.870;16.058;2023-03-01T09:35:13;16.98;;;9.00;;
49514;SDS011;35415;47.870;16.058;2023-03-01T09:37:40;18.23;;;10.38;;
49514;SDS011;35415;47.870;16.058;2023-03-01T09:40:11;35.47;;;17.67;;
49514;SDS011;35415;47.870;16.058;2023-03-01T09:42:45;21.77;;;12.48;;
49514;SDS011;35415;47.870;16.058;2023-03-01T09:45:20;18.00;;;9.70;;
49514;SDS011;35415;47.870;16.058;2023-03-01T09:47:53;19.23;;;8.82;;
49514;SDS011;35415;47.870;16.058;2023-03-01T09:50:22;27.00;;;11.95;;
49514;SDS011;35415;47.870;16.058;2023-03-01T09:52:50;33.75;;;15.35;;
49514;SDS011;35415;47.870;16.058;2023-03-01T09:55:26;21.40;;;9.40;;
49514;SDS011;35415;47.870;16.058;2023-03-01T09:57:57;16.80;;;8.57;;
49514;SDS011;35415;47.870;16.058;2023-03-01T10:00:33;19.33;;;10.00;;
49514;SDS011;35415;47.870;16.058;2023-03-01T10:03:11;20.90;;;10.02;;
49514;SDS011;35415;47.870;16.058;2023-03-01T10:05:50;17.45;;;8.52;;
49514;SDS011;35415;47.870;16.058;2023-03-01T10:08:25;27.08;;;11.00;;
49514;SDS011;35415;47.870;16.058;2023-03-01T10:10:56;18.83;;;9.23;;
49514;SDS011;35415;47.870;16.058;2023-03-01T10:13:25;18.15;;;9.07;;
49514;SDS011;35415;47.870;16.058;2023-03-01T10:16:00;27.65;;;11.38;;
49514;SDS011;35415;47.870;16.058;2023-03-01T10:18:33;38.25;;;13.98;;
49514;SDS011;35415;47.870;16.058;2023-03-01T10:21:07;31.63;;;12.60;;
49514;SDS011;35415;47.870;16.058;2023-03-01T10:23:41;19.80;;;9.80;;
49514;SDS011;35415;47.870;16.058;2023-03-01T10:29:04;15.52;;;8.30;;
49514;SDS011;35415;47.870;16.058;2023-03-01T10:31:37;21.92;;;10.70;;
49514;SDS011;35415;47.870;16.058;2023-03-01T10:34:14;18.35;;;9.00;;
49514;SDS011;35415;47.870;16.058;2023-03-01T10:36:43;21.70;;;11.82;;
49514;SDS011;35415;47.870;16.058;2023-03-01T10:39:15;20.05;;;10.38;;
49514;SDS011;35415;47.870;16.058;2023-03-01T10:42:00;20.95;;;10.30;;
49514;SDS011;35415;47.870;16.058;2023-03-01T10:47:15;15.05;;;8.57;;
49514;SDS011;35415;47.870;16.058;2023-03-01T10:49:57;25.02;;;11.63;;
49514;SDS011;35415;47.870;16.058;2023-03-01T10:52:30;23.67;;;8.80;;
49514;SDS011;35415;47.870;16.058;2023-03-01T10:54:59;30.92;;;13.63;;
49514;SDS011;35415;47.870;16.058;2023-03-01T10:57:30;30.88;;;13.95;;
49514;SDS011;35415;47.870;16.058;2023-03-01T11:00:05;26.67;;;12.47;;
49514;SDS011;35415;47.870;16.058;2023-03-01T11:02:45;17.48;;;9.15;;
49514;SDS011;35415;47.870;16.058;2023-03-01T11:05:18;20.33;;;9.38;;
49514;SDS011;35415;47.870;16.058;2023-03-01T11:07:49;19.33;;;10.30;;
49514;SDS011;35415;47.870;16.058;2023-03-01T11:10:18;20.65;;;10.27;;
49514;SDS011;35415;47.870;16.058;2023-03-01T11:12:47;21.98;;;11.70;;
49514;SDS011;35415;47.870;16.058;2023-03-01T11:15:19;16.92;;;9.07;;
49514;SDS011;35415;47.870;16.058;2023-03-01T11:17:49;24.50;;;11.60;;
49514;SDS011;35415;47.870;16.058;2023-03-01T11:20:20;23.17;;;12.35;;
49514;SDS011;35415;47.870;16.058;2023-03-01T11:22:53;26.48;;;13.30;;
49514;SDS011;35415;47.870;16.058;2023-03-01T11:25:23;17.15;;;10.25;;
49514;SDS011;35415;47.870;16.058;2023-03-01T11:27:53;26.00;;;13.35;;
49514;SDS011;35415;47.870;16.058;2023-03-01T11:30:23;22.95;;;11.93;;
49514;SDS011;35415;47.870;16.058;2023-03-01T11:33:00;22.02;;;10.80;;
49514;SDS011;35415;47.870;16.058;2023-03-01T11:35:35;18.33;;;10.88;;
49514;SDS011;35415;47.870;16.058;2023-03-01T11:38:15;15.30;;;9.05;;
49514;SDS011;35415;47.870;16.058;2023-03-01T11:40:47;15.52;;;9.35;;
49514;SDS011;35415;47.870;16.058;2023-03-01T11:43:19;16.85;;;8.85;;
49514;SDS011;35415;47.870;16.058;2023-03-01T11:45:57;18.23;;;7.90;;
49514;SDS011;35415;47.870;16.058;2023-03-01T11:48:48;18.65;;;8.45;;
49514;SDS011;35415;47.870;16.058;2023-03-01T11:51:31;12.80;;;8.43;;
49514;SDS011;35415;47.870;16.058;2023-03-01T11:54:10;15.00;;;8.23;;
49514;SDS011;35415;47.870;16.058;2023-03-01T11:56:45;13.77;;;8.10;;
49514;SDS011;35415;47.870;16.058;2023-03-01T12:02:27;16.05;;;8.05;;
49514;SDS011;35415;47.870;16.058;2023-03-01T12:05:16;13.48;;;7.63;;
49514;SDS011;35415;47.870;16.058;2023-03-01T12:07:55;12.82;;;7.55;;
49514;SDS011;35415;47.870;16.058;2023-03-01T12:10:27;16.67;;;9.80;;
49514;SDS011;35415;47.870;16.058;2023-03-01T12:13:10;13.70;;;7.70;;
49514;SDS011;35415;47.870;16.058;2023-03-01T12:16:12;13.73;;;7.43;;
49514;SDS011;35415;47.870;16.058;2023-03-01T12:18:50;14.60;;;8.30;;
49514;SDS011;35415;47.870;16.058;2023-03-01T12:21:30;17.40;;;8.88;;
49514;SDS011;35415;47.870;16.058;2023-03-01T12:27:14;15.20;;;8.57;;
49514;SDS011;35415;47.870;16.058;2023-03-01T12:30:00;15.60;;;9.18;;
49514;SDS011;35415;47.870;16.058;2023-03-01T12:32:42;18.42;;;9.15;;
49514;SDS011;35415;47.870;16.058;2023-03-01T12:35:28;15.35;;;9.05;;
49514;SDS011;35415;47.870;16.058;2023-03-01T12:38:24;13.25;;;8.27;;
49514;SDS011;35415;47.870;16.058;2023-03-01T12:44:04;19.30;;;8.30;;
49514;SDS011;35415;47.870;16.058;2023-03-01T12:46:42;15.95;;;8.27;;
49514;SDS011;35415;47.870;16.058;2023-03-01T12:49:19;14.90;;;7.65;;
49514;SDS011;35415;47.870;16.058;2023-03-01T12:51:53;14.07;;;7.45;;
49514;SDS011;35415;47.870;16.058;2023-03-01T12:54:26;18.73;;;8.18;;
49514;SDS011;35415;47.870;16.058;2023-03-01T12:56:55;14.98;;;8.32;;
49514;SDS011;35415;47.870;16.058;2023-03-01T12:59:28;14.68;;;8.45;;
49514;SDS011;35415;47.870;16.058;2023-03-01T13:02:04;17.10;;;9.57;;
49514;SDS011;35415;47.870;16.058;2023-03-01T13:04:43;13.85;;;8.98;;
49514;SDS011;35415;47.870;16.058;2023-03-01T13:07:23;13.68;;;7.70;;
49514;SDS011;35415;47.870;16.058;2023-03-01T13:09:58;18.15;;;8.50;;
49514;SDS011;35415;47.870;16.058;2023-03-01T13:12:47;14.63;;;9.50;;
49514;SDS011;35415;47.870;16.058;2023-03-01T13:15:27;18.17;;;9.20;;
49514;SDS011;35415;47.870;16.058;2023-03-01T13:17:57;15.07;;;9.05;;
49514;SDS011;35415;47.870;16.058;2023-03-01T13:20:26;16.58;;;9.15;;
49514;SDS011;35415;47.870;16.058;2023-03-01T13:23:03;18.83;;;9.75;;
49514;SDS011;35415;47.870;16.058;2023-03-01T13:25:33;23.92;;;12.50;;
49514;SDS011;35415;47.870;16.058;2023-03-01T13:37:35;18.77;;;10.45;;
49514;SDS011;35415;47.870;16.058;2023-03-01T13:43:29;16.20;;;9.45;;
49514;SDS011;35415;47.870;16.058;2023-03-01T13:45:57;19.00;;;10.30;;
49514;SDS011;35415;47.870;16.058;2023-03-01T13:48:26;19.52;;;9.85;;
49514;SDS011;35415;47.870;16.058;2023-03-01T13:50:59;15.23;;;9.93;;
49514;SDS011;35415;47.870;16.058;2023-03-01T13:53:29;17.77;;;9.98;;
49514;SDS011;35415;47.870;16.058;2023-03-01T13:56:01;22.40;;;12.77;;
49514;SDS011;35415;47.870;16.058;2023-03-01T13:58:43;18.90;;;11.02;;
49514;SDS011;35415;47.870;16.058;2023-03-01T14:01:20;19.02;;;9.65;;
49514;SDS011;35415;47.870;16.058;2023-03-01T14:03:50;18.40;;;10.07;;
49514;SDS011;35415;47.870;16.058;2023-03-01T14:06:19;17.55;;;10.43;;
49514;SDS011;35415;47.870;16.058;2023-03-01T14:08:49;23.33;;;11.02;;
49514;SDS011;35415;47.870;16.058;2023-03-01T14:11:48;20.52;;;10.85;;
49514;SDS011;35415;47.870;16.058;2023-03-01T14:14:42;18.83;;;10.60;;
49514;SDS011;35415;47.870;16.058;2023-03-01T14:17:31;19.83;;;10.25;;
49514;SDS011;35415;47.870;16.058;2023-03-01T14:20:09;20.15;;;11.52;;
49514;SDS011;35415;47.870;16.058;2023-03-01T14:22:42;18.83;;;11.88;;
49514;SDS011;35415;47.870;16.058;2023-03-01T14:25:19;19.00;;;10.35;;
49514;SDS011;35415;47.870;16.058;2023-03-01T14:27:54;18.80;;;10.52;;
49514;SDS011;35415;47.870;16.058;2023-03-01T14:30:30;22.35;;;10.98;;
49514;SDS011;35415;47.870;16.058;2023-03-01T14:33:03;19.75;;;11.00;;
49514;SDS011;35415;47.870;16.058;2023-03-01T14:35:34;18.27;;;11.25;;
49514;SDS011;35415;47.870;16.058;2023-03-01T14:38:04;21.13;;;11.05;;
49514;SDS011;35415;47.870;16.058;2023-03-01T14:40:32;16.48;;;10.65;;
49514;SDS011;35415;47.870;16.058;2023-03-01T14:43:02;17.23;;;9.68;;
49514;SDS011;35415;47.870;16.058;2023-03-01T14:45:36;21.45;;;11.18;;
49514;SDS011;35415;47.870;16.058;2023-03-01T14:48:04;16.42;;;10.23;;
49514;SDS011;35415;47.870;16.058;2023-03-01T14:50:34;19.35;;;11.10;;
49514;SDS011;35415;47.870;16.058;2023-03-01T14:53:12;19.10;;;11.02;;
49514;SDS011;35415;47.870;16.058;2023-03-01T14:55:45;18.55;;;10.85;;
49514;SDS011;35415;47.870;16.058;2023-03-01T14:58:18;21.23;;;11.85;;
49514;SDS011;35415;47.870;16.058;2023-03-01T15:00:48;19.67;;;11.02;;
49514;SDS011;35415;47.870;16.058;2023-03-01T15:03:25;39.67;;;22.33;;
49514;SDS011;35415;47.870;16.058;2023-03-01T15:05:57;20.75;;;12.40;;
49514;SDS011;35415;47.870;16.058;2023-03-01T15:08:30;20.45;;;11.50;;